sensor_id;sensor_type;location;lat;lon;timestamp;P1;durP1;ratioP1;P2;durP2;ratioP2
56927;SDS011;60850;52.502;13.426;2023-07-09T00:01:49;5.28;;;2.90;;
56927;SDS011;60850;52.502;13.426;2023-07-09T00:04:18;3.92;;;2.55;;
56927;SDS011;60850;52.502;13.426;2023-07-09T00:06:45;4.15;;;2.63;;
56927;SDS011;60850;52.502;13.426;2023-07-09T00:09:12;4.35;;;2.63;;
56927;SDS011;60850;52.502;13.426;2023-07-09T00:11:41;4.95;;;2.83;;
56927;SDS011;60850;52.502;13.426;2023-07-09T00:14:09;4.22;;;2.60;;
56927;SDS011;60850;52.502;13.426;2023-07-09T00:16:37;4.53;;;2.70;;
56927;SDS011;60850;52.502;13.426;2023-07-09T00:19:05;3.67;;;2.50;;
56927;SDS011;60850;52.502;13.426;2023-07-09T00:21:40;4.72;;;2.75;;
56927;SDS011;60850;52.502;13.426;2023-07-09T00:24:07;2.67;;;2.33;;
56927;SDS011;60850;52.502;13.426;2023-07-09T00:26:36;5.03;;;2.58;;
56927;SDS011;60850;52.502;13.426;2023-07-09T00:29:07;4.90;;;2.90;;
56927;SDS011;60850;52.502;13.426;2023-07-09T00:31:35;4.68;;;2.78;;
56927;SDS011;60850;52.502;13.426;2023-07-09T00:34:04;5.97;;;2.67;;
56927;SDS011;60850;52.502;13.426;2023-07-09T00:36:31;4.32;;;2.90;;
56927;SDS011;60850;52.502;13.426;2023-07-09T00:38:59;5.10;;;2.78;;
56927;SDS011;60850;52.502;13.426;2023-07-09T00:41:31;5.03;;;3.03;;
56927;SDS011;60850;52.502;13.426;2023-07-09T00:44:13;3.60;;;2.45;;
56927;SDS011;60850;52.502;13.426;2023-07-09T00:49:45;4.40;;;2.78;;
56927;SDS011;60850;52.502;13.426;2023-07-09T00:52:18;5.38;;;2.85;;
56927;SDS011;60850;52.502;13.426;2023-07-09T00:54:51;4.43;;;2.50;;
56927;SDS011;60850;52.502;13.426;2023-07-09T00:57:23;5.28;;;2.40;;
56927;SDS011;60850;52.502;13.426;2023-07-09T00:59:53;6.88;;;2.60;;
56927;SDS011;60850;52.502;13.426;2023-07-09T01:02:24;8.95;;;3.10;;
56927;SDS011;60850;52.502;13.426;2023-07-09T01:04:51;6.60;;;3.78;;
56927;SDS011;60850;52.502;13.426;2023-07-09T01:07:26;4.15;;;2.88;;
56927;SDS011;60850;52.502;13.426;2023-07-09T01:09:55;6.70;;;3.00;;
56927;SDS011;60850;52.502;13.426;2023-07-09T01:12:22;4.25;;;2.53;;
56927;SDS011;60850;52.502;13.426;2023-07-09T01:14:50;6.88;;;3.08;;
56927;SDS011;60850;52.502;13.426;2023-07-09T01:17:20;4.25;;;2.97;;
56927;SDS011;60850;52.502;13.426;2023-07-09T01:19:48;3.35;;;2.60;;
56927;SDS011;60850;52.502;13.426;2023-07-09T01:22:18;5.90;;;2.72;;
56927;SDS011;60850;52.502;13.426;2023-07-09T01:24:48;3.45;;;2.42;;
56927;SDS011;60850;52.502;13.426;2023-07-09T01:27:19;4.07;;;2.80;;
56927;SDS011;60850;52.502;13.426;2023-07-09T01:29:48;4.93;;;2.90;;
56927;SDS011;60850;52.502;13.426;2023-07-09T01:32:16;3.55;;;2.40;;
56927;SDS011;60850;52.502;13.426;2023-07-09T01:34:44;3.90;;;2.78;;
56927;SDS011;60850;52.502;13.426;2023-07-09T01:37:13;4.20;;;2.70;;
56927;SDS011;60850;52.502;13.426;2023-07-09T01:39:42;5.20;;;2.67;;
56927;SDS011;60850;52.502;13.426;2023-07-09T01:42:10;7.32;;;3.75;;
56927;SDS011;60850;52.502;13.426;2023-07-09T01:44:38;5.60;;;2.70;;
56927;SDS011;60850;52.502;13.426;2023-07-09T01:47:06;4.53;;;2.72;;
56927;SDS011;60850;52.502;13.426;2023-07-09T01:49:34;3.63;;;2.78;;
56927;SDS011;60850;52.502;13.426;2023-07-09T01:52:01;9.82;;;2.70;;
56927;SDS011;60850;52.502;13.426;2023-07-09T01:54:29;4.55;;;3.05;;
56927;SDS011;60850;52.502;13.426;2023-07-09T01:57:11;6.80;;;2.88;;
56927;SDS011;60850;52.502;13.426;2023-07-09T01:59:40;4.47;;;2.60;;
56927;SDS011;60850;52.502;13.426;2023-07-09T02:02:07;4.85;;;3.08;;
56927;SDS011;60850;52.502;13.426;2023-07-09T02:04:34;4.47;;;2.60;;
56927;SDS011;60850;52.502;13.426;2023-07-09T02:07:01;5.05;;;3.15;;
56927;SDS011;60850;52.502;13.426;2023-07-09T02:09:28;4.03;;;3.13;;
56927;SDS011;60850;52.502;13.426;2023-07-09T02:11:55;4.13;;;3.20;;
56927;SDS011;60850;52.502;13.426;2023-07-09T02:14:23;3.60;;;2.97;;
56927;SDS011;60850;52.502;13.426;2023-07-09T02:16:50;4.43;;;2.97;;
56927;SDS011;60850;52.502;13.426;2023-07-09T02:19:17;4.65;;;3.00;;
56927;SDS011;60850;52.502;13.426;2023-07-09T02:21:44;9.18;;;4.00;;
56927;SDS011;60850;52.502;13.426;2023-07-09T02:24:11;5.22;;;3.40;;
56927;SDS011;60850;52.502;13.426;2023-07-09T02:26:38;5.20;;;3.40;;
56927;SDS011;60850;52.502;13.426;2023-07-09T02:29:05;4.07;;;2.80;;
56927;SDS011;60850;52.502;13.426;2023-07-09T02:31:33;5.55;;;3.05;;
56927;SDS011;60850;52.502;13.426;2023-07-09T02:34:00;5.25;;;3.10;;
56927;SDS011;60850;52.502;13.426;2023-07-09T02:36:28;6.53;;;3.25;;
56927;SDS011;60850;52.502;13.426;2023-07-09T02:38:55;10.95;;;3.58;;
56927;SDS011;60850;52.502;13.426;2023-07-09T02:41:22;5.88;;;3.22;;
56927;SDS011;60850;52.502;13.426;2023-07-09T02:43:48;5.27;;;3.20;;
56927;SDS011;60850;52.502;13.426;2023-07-09T02:46:15;5.57;;;3.33;;
56927;SDS011;60850;52.502;13.426;2023-07-09T02:48:44;5.60;;;3.50;;
56927;SDS011;60850;52.502;13.426;2023-07-09T02:51:11;5.18;;;3.17;;
56927;SDS011;60850;52.502;13.426;2023-07-09T02:53:37;5.97;;;3.47;;
56927;SDS011;60850;52.502;13.426;2023-07-09T02:56:04;5.80;;;3.22;;
56927;SDS011;60850;52.502;13.426;2023-07-09T02:58:31;4.50;;;3.28;;
56927;SDS011;60850;52.502;13.426;2023-07-09T03:00:58;4.50;;;3.47;;
56927;SDS011;60850;52.502;13.426;2023-07-09T03:03:25;5.97;;;3.70;;
56927;SDS011;60850;52.502;13.426;2023-07-09T03:05:55;3.45;;;3.10;;
56927;SDS011;60850;52.502;13.426;2023-07-09T03:08:22;6.07;;;3.40;;
56927;SDS011;60850;52.502;13.426;2023-07-09T03:10:49;5.03;;;2.97;;
56927;SDS011;60850;52.502;13.426;2023-07-09T03:13:16;6.63;;;3.35;;
56927;SDS011;60850;52.502;13.426;2023-07-09T03:15:43;3.53;;;2.92;;
56927;SDS011;60850;52.502;13.426;2023-07-09T03:18:10;3.60;;;3.00;;
56927;SDS011;60850;52.502;13.426;2023-07-09T03:20:37;4.07;;;3.13;;
56927;SDS011;60850;52.502;13.426;2023-07-09T03:23:05;8.63;;;3.15;;
56927;SDS011;60850;52.502;13.426;2023-07-09T03:25:32;6.88;;;3.45;;
56927;SDS011;60850;52.502;13.426;2023-07-09T03:27:59;6.70;;;3.42;;
56927;SDS011;60850;52.502;13.426;2023-07-09T03:30:27;5.60;;;3.45;;
56927;SDS011;60850;52.502;13.426;2023-07-09T03:32:53;6.72;;;3.47;;
56927;SDS011;60850;52.502;13.426;2023-07-09T03:35:20;7.97;;;3.47;;
56927;SDS011;60850;52.502;13.426;2023-07-09T03:37:47;8.00;;;3.45;;
56927;SDS011;60850;52.502;13.426;2023-07-09T03:40:21;7.25;;;3.60;;
56927;SDS011;60850;52.502;13.426;2023-07-09T03:42:49;10.50;;;3.33;;
56927;SDS011;60850;52.502;13.426;2023-07-09T03:45:16;5.72;;;3.70;;
56927;SDS011;60850;52.502;13.426;2023-07-09T03:47:43;6.43;;;3.58;;
56927;SDS011;60850;52.502;13.426;2023-07-09T03:50:10;4.28;;;2.60;;
56927;SDS011;60850;52.502;13.426;2023-07-09T03:52:37;4.50;;;3.15;;
56927;SDS011;60850;52.502;13.426;2023-07-09T03:55:04;6.20;;;3.47;;
56927;SDS011;60850;52.502;13.426;2023-07-09T03:57:33;10.55;;;4.43;;
56927;SDS011;60850;52.502;13.426;2023-07-09T04:00:01;5.88;;;3.80;;
56927;SDS011;60850;52.502;13.426;2023-07-09T04:02:30;5.55;;;3.20;;
56927;SDS011;60850;52.502;13.426;2023-07-09T04:04:57;5.60;;;3.35;;
56927;SDS011;60850;52.502;13.426;2023-07-09T04:07:24;4.88;;;3.55;;
56927;SDS011;60850;52.502;13.426;2023-07-09T04:09:51;5.43;;;3.33;;
56927;SDS011;60850;52.502;13.426;2023-07-09T04:12:18;5.57;;;3.35;;
56927;SDS011;60850;52.502;13.426;2023-07-09T04:14:46;5.03;;;3.28;;
56927;SDS011;60850;52.502;13.426;2023-07-09T04:17:13;6.60;;;3.50;;
56927;SDS011;60850;52.502;13.426;2023-07-09T04:19:40;4.32;;;3.03;;
56927;SDS011;60850;52.502;13.426;2023-07-09T04:22:07;6.00;;;3.30;;
56927;SDS011;60850;52.502;13.426;2023-07-09T04:24:36;8.02;;;3.33;;
56927;SDS011;60850;52.502;13.426;2023-07-09T04:27:03;6.05;;;3.33;;
56927;SDS011;60850;52.502;13.426;2023-07-09T04:29:31;5.57;;;3.50;;
56927;SDS011;60850;52.502;13.426;2023-07-09T04:32:02;5.53;;;3.15;;
56927;SDS011;60850;52.502;13.426;2023-07-09T04:34:29;6.22;;;3.80;;
56927;SDS011;60850;52.502;13.426;2023-07-09T04:36:56;3.60;;;3.28;;
56927;SDS011;60850;52.502;13.426;2023-07-09T04:39:23;6.03;;;3.25;;
56927;SDS011;60850;52.502;13.426;2023-07-09T04:41:50;6.65;;;2.90;;
56927;SDS011;60850;52.502;13.426;2023-07-09T04:44:17;5.88;;;3.15;;
56927;SDS011;60850;52.502;13.426;2023-07-09T04:46:43;4.88;;;3.05;;
56927;SDS011;60850;52.502;13.426;2023-07-09T04:49:12;8.30;;;3.80;;
56927;SDS011;60850;52.502;13.426;2023-07-09T04:51:39;4.90;;;2.92;;
56927;SDS011;60850;52.502;13.426;2023-07-09T04:54:06;6.15;;;3.80;;
56927;SDS011;60850;52.502;13.426;2023-07-09T04:56:32;7.40;;;3.42;;
56927;SDS011;60850;52.502;13.426;2023-07-09T04:58:59;5.10;;;2.90;;
56927;SDS011;60850;52.502;13.426;2023-07-09T05:01:26;4.53;;;3.08;;
56927;SDS011;60850;52.502;13.426;2023-07-09T05:03:54;3.72;;;3.00;;
56927;SDS011;60850;52.502;13.426;2023-07-09T05:06:22;4.57;;;3.33;;
56927;SDS011;60850;52.502;13.426;2023-07-09T05:08:49;5.10;;;2.92;;
56927;SDS011;60850;52.502;13.426;2023-07-09T05:11:16;5.82;;;3.45;;
56927;SDS011;60850;52.502;13.426;2023-07-09T05:13:43;9.68;;;5.18;;
56927;SDS011;60850;52.502;13.426;2023-07-09T05:16:09;8.27;;;2.65;;
56927;SDS011;60850;52.502;13.426;2023-07-09T05:18:36;4.70;;;2.78;;
56927;SDS011;60850;52.502;13.426;2023-07-09T05:21:03;3.92;;;2.90;;
56927;SDS011;60850;52.502;13.426;2023-07-09T05:23:32;5.50;;;3.08;;
56927;SDS011;60850;52.502;13.426;2023-07-09T05:25:59;4.85;;;3.20;;
56927;SDS011;60850;52.502;13.426;2023-07-09T05:28:28;5.43;;;2.72;;
56927;SDS011;60850;52.502;13.426;2023-07-09T05:30:55;4.45;;;2.83;;
56927;SDS011;60850;52.502;13.426;2023-07-09T05:33:22;4.60;;;3.08;;
56927;SDS011;60850;52.502;13.426;2023-07-09T05:35:49;4.57;;;2.55;;
56927;SDS011;60850;52.502;13.426;2023-07-09T05:38:16;5.72;;;2.65;;
56927;SDS011;60850;52.502;13.426;2023-07-09T05:40:44;4.53;;;2.65;;
56927;SDS011;60850;52.502;13.426;2023-07-09T05:43:12;3.00;;;2.33;;
56927;SDS011;60850;52.502;13.426;2023-07-09T05:45:39;4.40;;;2.40;;
56927;SDS011;60850;52.502;13.426;2023-07-09T05:48:06;5.53;;;2.53;;
56927;SDS011;60850;52.502;13.426;2023-07-09T05:50:34;4.90;;;2.70;;
56927;SDS011;60850;52.502;13.426;2023-07-09T05:53:01;4.03;;;2.85;;
56927;SDS011;60850;52.502;13.426;2023-07-09T05:55:28;3.83;;;3.10;;
56927;SDS011;60850;52.502;13.426;2023-07-09T05:57:56;5.57;;;2.88;;
56927;SDS011;60850;52.502;13.426;2023-07-09T06:00:23;6.28;;;3.03;;
56927;SDS011;60850;52.502;13.426;2023-07-09T06:02:50;5.03;;;2.85;;
56927;SDS011;60850;52.502;13.426;2023-07-09T06:05:17;4.95;;;2.60;;
56927;SDS011;60850;52.502;13.426;2023-07-09T06:07:45;5.88;;;3.10;;
56927;SDS011;60850;52.502;13.426;2023-07-09T06:10:11;12.70;;;3.25;;
56927;SDS011;60850;52.502;13.426;2023-07-09T06:12:39;5.95;;;2.90;;
56927;SDS011;60850;52.502;13.426;2023-07-09T06:15:08;3.65;;;2.75;;
56927;SDS011;60850;52.502;13.426;2023-07-09T06:17:36;4.50;;;2.80;;
56927;SDS011;60850;52.502;13.426;2023-07-09T06:20:03;4.43;;;2.60;;
56927;SDS011;60850;52.502;13.426;2023-07-09T06:22:31;3.08;;;2.40;;
56927;SDS011;60850;52.502;13.426;2023-07-09T06:24:58;6.53;;;3.10;;
56927;SDS011;60850;52.502;13.426;2023-07-09T06:27:25;3.80;;;2.70;;
56927;SDS011;60850;52.502;13.426;2023-07-09T06:29:52;5.38;;;3.28;;
56927;SDS011;60850;52.502;13.426;2023-07-09T06:32:21;4.57;;;2.88;;
56927;SDS011;60850;52.502;13.426;2023-07-09T06:34:48;3.83;;;2.78;;
56927;SDS011;60850;52.502;13.426;2023-07-09T06:37:15;5.28;;;2.70;;
56927;SDS011;60850;52.502;13.426;2023-07-09T06:39:42;3.58;;;2.45;;
56927;SDS011;60850;52.502;13.426;2023-07-09T06:42:09;5.03;;;2.85;;
56927;SDS011;60850;52.502;13.426;2023-07-09T06:44:36;2.65;;;2.45;;
56927;SDS011;60850;52.502;13.426;2023-07-09T06:47:03;4.03;;;2.90;;
56927;SDS011;60850;52.502;13.426;2023-07-09T06:49:31;3.33;;;2.35;;
56927;SDS011;60850;52.502;13.426;2023-07-09T06:52:02;3.22;;;2.65;;
56927;SDS011;60850;52.502;13.426;2023-07-09T06:54:29;5.03;;;2.55;;
56927;SDS011;60850;52.502;13.426;2023-07-09T06:56:56;3.47;;;2.70;;
56927;SDS011;60850;52.502;13.426;2023-07-09T06:59:22;3.15;;;2.83;;
56927;SDS011;60850;52.502;13.426;2023-07-09T07:01:50;3.40;;;2.67;;
56927;SDS011;60850;52.502;13.426;2023-07-09T07:04:16;4.13;;;2.75;;
56927;SDS011;60850;52.502;13.426;2023-07-09T07:06:45;3.60;;;2.88;;
56927;SDS011;60850;52.502;13.426;2023-07-09T07:09:12;4.03;;;3.63;;
56927;SDS011;60850;52.502;13.426;2023-07-09T07:11:39;8.02;;;3.00;;
56927;SDS011;60850;52.502;13.426;2023-07-09T07:14:06;3.17;;;2.85;;
56927;SDS011;60850;52.502;13.426;2023-07-09T07:16:33;6.15;;;2.70;;
56927;SDS011;60850;52.502;13.426;2023-07-09T07:18:59;3.30;;;3.00;;
56927;SDS011;60850;52.502;13.426;2023-07-09T07:21:26;3.42;;;2.90;;
56927;SDS011;60850;52.502;13.426;2023-07-09T07:23:54;4.53;;;2.58;;
56927;SDS011;60850;52.502;13.426;2023-07-09T07:26:22;3.08;;;2.75;;
56927;SDS011;60850;52.502;13.426;2023-07-09T07:28:49;6.13;;;2.97;;
56927;SDS011;60850;52.502;13.426;2023-07-09T07:31:16;4.15;;;3.10;;
56927;SDS011;60850;52.502;13.426;2023-07-09T07:33:43;4.10;;;3.08;;
56927;SDS011;60850;52.502;13.426;2023-07-09T07:36:10;4.50;;;3.78;;
56927;SDS011;60850;52.502;13.426;2023-07-09T07:38:36;4.20;;;2.90;;
56927;SDS011;60850;52.502;13.426;2023-07-09T07:41:05;3.60;;;2.95;;
56927;SDS011;60850;52.502;13.426;2023-07-09T07:43:32;3.55;;;2.90;;
56927;SDS011;60850;52.502;13.426;2023-07-09T07:45:59;3.60;;;3.10;;
56927;SDS011;60850;52.502;13.426;2023-07-09T07:48:25;3.30;;;3.00;;
56927;SDS011;60850;52.502;13.426;2023-07-09T07:50:57;3.38;;;2.63;;
56927;SDS011;60850;52.502;13.426;2023-07-09T07:53:27;3.50;;;3.00;;
56927;SDS011;60850;52.502;13.426;2023-07-09T07:55:57;4.30;;;3.40;;
56927;SDS011;60850;52.502;13.426;2023-07-09T07:58:28;5.13;;;2.85;;
56927;SDS011;60850;52.502;13.426;2023-07-09T08:00:57;3.53;;;3.10;;
56927;SDS011;60850;52.502;13.426;2023-07-09T08:03:24;3.15;;;2.85;;
56927;SDS011;60850;52.502;13.426;2023-07-09T08:05:52;3.85;;;3.15;;
56927;SDS011;60850;52.502;13.426;2023-07-09T08:08:19;2.70;;;2.50;;
56927;SDS011;60850;52.502;13.426;2023-07-09T08:10:46;3.30;;;3.00;;
56927;SDS011;60850;52.502;13.426;2023-07-09T08:13:13;3.47;;;3.00;;
56927;SDS011;60850;52.502;13.426;2023-07-09T08:15:42;4.38;;;3.08;;
56927;SDS011;60850;52.502;13.426;2023-07-09T08:18:11;5.15;;;3.42;;
56927;SDS011;60850;52.502;13.426;2023-07-09T08:20:38;4.05;;;2.97;;
56927;SDS011;60850;52.502;13.426;2023-07-09T08:23:09;5.68;;;3.60;;
56927;SDS011;60850;52.502;13.426;2023-07-09T08:25:36;4.63;;;2.85;;
56927;SDS011;60850;52.502;13.426;2023-07-09T08:28:03;4.80;;;3.10;;
56927;SDS011;60850;52.502;13.426;2023-07-09T08:30:33;3.40;;;3.10;;
56927;SDS011;60850;52.502;13.426;2023-07-09T08:33:01;3.58;;;2.92;;
56927;SDS011;60850;52.502;13.426;2023-07-09T08:35:29;3.83;;;2.85;;
56927;SDS011;60850;52.502;13.426;2023-07-09T08:37:57;4.63;;;3.47;;
56927;SDS011;60850;52.502;13.426;2023-07-09T08:40:24;4.90;;;3.08;;
56927;SDS011;60850;52.502;13.426;2023-07-09T08:42:52;5.20;;;3.40;;
56927;SDS011;60850;52.502;13.426;2023-07-09T08:45:30;5.35;;;3.10;;
56927;SDS011;60850;52.502;13.426;2023-07-09T08:48:08;3.88;;;2.78;;
56927;SDS011;60850;52.502;13.426;2023-07-09T08:50:42;3.72;;;3.30;;
56927;SDS011;60850;52.502;13.426;2023-07-09T08:53:13;3.38;;;3.00;;
56927;SDS011;60850;52.502;13.426;2023-07-09T08:55:46;3.90;;;3.25;;
56927;SDS011;60850;52.502;13.426;2023-07-09T08:58:17;4.78;;;3.10;;
56927;SDS011;60850;52.502;13.426;2023-07-09T09:00:51;3.45;;;3.03;;
56927;SDS011;60850;52.502;13.426;2023-07-09T09:03:26;3.08;;;2.50;;
56927;SDS011;60850;52.502;13.426;2023-07-09T09:05:57;3.65;;;2.70;;
56927;SDS011;60850;52.502;13.426;2023-07-09T09:08:29;5.35;;;2.60;;
56927;SDS011;60850;52.502;13.426;2023-07-09T09:11:07;4.05;;;2.83;;
56927;SDS011;60850;52.502;13.426;2023-07-09T09:13:40;3.80;;;2.90;;
56927;SDS011;60850;52.502;13.426;2023-07-09T09:16:11;3.83;;;2.92;;
56927;SDS011;60850;52.502;13.426;2023-07-09T09:18:47;3.83;;;3.30;;
56927;SDS011;60850;52.502;13.426;2023-07-09T09:21:17;4.53;;;2.78;;
56927;SDS011;60850;52.502;13.426;2023-07-09T09:23:49;3.72;;;2.47;;
56927;SDS011;60850;52.502;13.426;2023-07-09T09:26:21;3.55;;;2.50;;
56927;SDS011;60850;52.502;13.426;2023-07-09T09:28:51;4.82;;;2.88;;
56927;SDS011;60850;52.502;13.426;2023-07-09T09:31:19;3.65;;;2.50;;
56927;SDS011;60850;52.502;13.426;2023-07-09T09:33:48;4.10;;;2.92;;
56927;SDS011;60850;52.502;13.426;2023-07-09T09:36:17;3.03;;;2.72;;
56927;SDS011;60850;52.502;13.426;2023-07-09T09:38:45;4.63;;;3.00;;
56927;SDS011;60850;52.502;13.426;2023-07-09T09:41:15;3.50;;;3.20;;
56927;SDS011;60850;52.502;13.426;2023-07-09T09:43:44;5.03;;;3.30;;
56927;SDS011;60850;52.502;13.426;2023-07-09T09:46:16;3.55;;;2.67;;
56927;SDS011;60850;52.502;13.426;2023-07-09T09:48:44;3.08;;;2.72;;
56927;SDS011;60850;52.502;13.426;2023-07-09T09:51:13;3.10;;;2.70;;
56927;SDS011;60850;52.502;13.426;2023-07-09T09:53:41;7.28;;;2.88;;
56927;SDS011;60850;52.502;13.426;2023-07-09T09:56:14;4.88;;;3.30;;
56927;SDS011;60850;52.502;13.426;2023-07-09T09:58:44;8.50;;;2.88;;
56927;SDS011;60850;52.502;13.426;2023-07-09T10:01:13;3.55;;;2.72;;
56927;SDS011;60850;52.502;13.426;2023-07-09T10:03:42;4.65;;;2.90;;
56927;SDS011;60850;52.502;13.426;2023-07-09T10:06:14;4.15;;;3.13;;
56927;SDS011;60850;52.502;13.426;2023-07-09T10:08:46;3.60;;;3.05;;
56927;SDS011;60850;52.502;13.426;2023-07-09T10:11:24;6.40;;;2.83;;
56927;SDS011;60850;52.502;13.426;2023-07-09T10:13:58;4.07;;;3.25;;
56927;SDS011;60850;52.502;13.426;2023-07-09T10:16:32;3.33;;;3.03;;
56927;SDS011;60850;52.502;13.426;2023-07-09T10:19:09;5.50;;;2.97;;
56927;SDS011;60850;52.502;13.426;2023-07-09T10:21:46;4.00;;;3.20;;
56927;SDS011;60850;52.502;13.426;2023-07-09T10:24:23;4.20;;;3.70;;
56927;SDS011;60850;52.502;13.426;2023-07-09T10:27:00;5.47;;;3.25;;
56927;SDS011;60850;52.502;13.426;2023-07-09T10:29:43;4.63;;;3.50;;
56927;SDS011;60850;52.502;13.426;2023-07-09T10:32:20;4.97;;;3.10;;
56927;SDS011;60850;52.502;13.426;2023-07-09T10:34:57;5.82;;;3.17;;
56927;SDS011;60850;52.502;13.426;2023-07-09T10:37:38;4.95;;;3.97;;
56927;SDS011;60850;52.502;13.426;2023-07-09T10:40:23;4.72;;;3.40;;
56927;SDS011;60850;52.502;13.426;2023-07-09T10:42:57;3.90;;;3.15;;
56927;SDS011;60850;52.502;13.426;2023-07-09T10:45:28;6.00;;;3.80;;
56927;SDS011;60850;52.502;13.426;2023-07-09T10:47:59;4.63;;;3.95;;
56927;SDS011;60850;52.502;13.426;2023-07-09T10:50:29;5.65;;;3.45;;
56927;SDS011;60850;52.502;13.426;2023-07-09T10:53:04;4.78;;;3.20;;
56927;SDS011;60850;52.502;13.426;2023-07-09T10:55:38;6.03;;;3.40;;
56927;SDS011;60850;52.502;13.426;2023-07-09T10:58:11;3.88;;;3.33;;
56927;SDS011;60850;52.502;13.426;2023-07-09T11:00:48;4.30;;;3.65;;
56927;SDS011;60850;52.502;13.426;2023-07-09T11:03:16;4.38;;;3.53;;
56927;SDS011;60850;52.502;13.426;2023-07-09T11:05:46;4.25;;;3.25;;
56927;SDS011;60850;52.502;13.426;2023-07-09T11:08:17;4.40;;;3.53;;
56927;SDS011;60850;52.502;13.426;2023-07-09T11:10:48;6.13;;;3.80;;
56927;SDS011;60850;52.502;13.426;2023-07-09T11:13:22;5.60;;;3.58;;
56927;SDS011;60850;52.502;13.426;2023-07-09T11:15:53;4.55;;;3.80;;
56927;SDS011;60850;52.502;13.426;2023-07-09T11:18:23;4.10;;;3.70;;
56927;SDS011;60850;52.502;13.426;2023-07-09T11:20:55;5.03;;;3.15;;
56927;SDS011;60850;52.502;13.426;2023-07-09T11:23:38;4.25;;;3.85;;
56927;SDS011;60850;52.502;13.426;2023-07-09T11:26:11;7.10;;;3.35;;
56927;SDS011;60850;52.502;13.426;2023-07-09T11:28:40;3.92;;;3.55;;
56927;SDS011;60850;52.502;13.426;2023-07-09T11:31:16;4.65;;;3.63;;
56927;SDS011;60850;52.502;13.426;2023-07-09T11:33:47;5.68;;;3.92;;
56927;SDS011;60850;52.502;13.426;2023-07-09T11:36:25;6.38;;;4.45;;
56927;SDS011;60850;52.502;13.426;2023-07-09T11:38:55;7.55;;;5.85;;
56927;SDS011;60850;52.502;13.426;2023-07-09T11:41:26;8.23;;;6.22;;
56927;SDS011;60850;52.502;13.426;2023-07-09T11:44:13;10.68;;;5.55;;
56927;SDS011;60850;52.502;13.426;2023-07-09T11:46:59;6.35;;;5.10;;
56927;SDS011;60850;52.502;13.426;2023-07-09T11:49:45;5.75;;;5.10;;
56927;SDS011;60850;52.502;13.426;2023-07-09T11:52:18;8.05;;;5.93;;
56927;SDS011;60850;52.502;13.426;2023-07-09T11:54:52;8.50;;;7.13;;
56927;SDS011;60850;52.502;13.426;2023-07-09T11:57:19;8.88;;;6.95;;
56927;SDS011;60850;52.502;13.426;2023-07-09T11:59:46;9.10;;;7.60;;
56927;SDS011;60850;52.502;13.426;2023-07-09T12:02:16;13.93;;;7.78;;
56927;SDS011;60850;52.502;13.426;2023-07-09T12:04:47;8.60;;;7.18;;
56927;SDS011;60850;52.502;13.426;2023-07-09T12:07:15;8.95;;;6.15;;
56927;SDS011;60850;52.502;13.426;2023-07-09T12:09:46;5.78;;;5.18;;
56927;SDS011;60850;52.502;13.426;2023-07-09T12:12:19;9.63;;;4.88;;
56927;SDS011;60850;52.502;13.426;2023-07-09T12:14:48;11.15;;;5.13;;
56927;SDS011;60850;52.502;13.426;2023-07-09T12:17:15;6.18;;;4.93;;
56927;SDS011;60850;52.502;13.426;2023-07-09T12:19:42;7.63;;;5.75;;
56927;SDS011;60850;52.502;13.426;2023-07-09T12:22:10;7.40;;;5.80;;
56927;SDS011;60850;52.502;13.426;2023-07-09T12:24:46;8.85;;;6.07;;
56927;SDS011;60850;52.502;13.426;2023-07-09T12:27:20;9.02;;;6.50;;
56927;SDS011;60850;52.502;13.426;2023-07-09T12:29:50;7.47;;;5.47;;
56927;SDS011;60850;52.502;13.426;2023-07-09T12:32:18;6.90;;;5.72;;
56927;SDS011;60850;52.502;13.426;2023-07-09T12:34:49;7.63;;;5.90;;
56927;SDS011;60850;52.502;13.426;2023-07-09T12:37:17;8.32;;;5.55;;
56927;SDS011;60850;52.502;13.426;2023-07-09T12:39:46;8.88;;;4.68;;
56927;SDS011;60850;52.502;13.426;2023-07-09T12:42:15;9.52;;;4.47;;
56927;SDS011;60850;52.502;13.426;2023-07-09T12:44:46;4.00;;;3.60;;
56927;SDS011;60850;52.502;13.426;2023-07-09T12:47:14;6.03;;;4.22;;
56927;SDS011;60850;52.502;13.426;2023-07-09T12:49:42;6.15;;;3.80;;
56927;SDS011;60850;52.502;13.426;2023-07-09T12:52:13;5.47;;;4.18;;
56927;SDS011;60850;52.502;13.426;2023-07-09T12:54:51;8.70;;;4.47;;
56927;SDS011;60850;52.502;13.426;2023-07-09T12:57:19;5.85;;;4.00;;
56927;SDS011;60850;52.502;13.426;2023-07-09T12:59:48;5.90;;;4.07;;
56927;SDS011;60850;52.502;13.426;2023-07-09T13:02:16;5.13;;;3.92;;
56927;SDS011;60850;52.502;13.426;2023-07-09T13:04:45;4.60;;;4.15;;
56927;SDS011;60850;52.502;13.426;2023-07-09T13:07:26;6.05;;;4.25;;
56927;SDS011;60850;52.502;13.426;2023-07-09T13:09:56;6.80;;;4.10;;
56927;SDS011;60850;52.502;13.426;2023-07-09T13:12:30;4.13;;;3.72;;
56927;SDS011;60850;52.502;13.426;2023-07-09T13:15:00;9.82;;;4.50;;
56927;SDS011;60850;52.502;13.426;2023-07-09T13:17:29;5.47;;;4.10;;
56927;SDS011;60850;52.502;13.426;2023-07-09T13:19:57;5.22;;;4.07;;
56927;SDS011;60850;52.502;13.426;2023-07-09T13:22:24;4.90;;;4.13;;
56927;SDS011;60850;52.502;13.426;2023-07-09T13:24:51;5.43;;;4.07;;
56927;SDS011;60850;52.502;13.426;2023-07-09T13:27:18;4.47;;;3.47;;
56927;SDS011;60850;52.502;13.426;2023-07-09T13:29:45;5.47;;;3.85;;
56927;SDS011;60850;52.502;13.426;2023-07-09T13:32:15;4.78;;;4.00;;
56927;SDS011;60850;52.502;13.426;2023-07-09T13:34:42;6.47;;;4.03;;
56927;SDS011;60850;52.502;13.426;2023-07-09T13:37:11;4.53;;;4.00;;
56927;SDS011;60850;52.502;13.426;2023-07-09T13:39:39;5.32;;;3.80;;
56927;SDS011;60850;52.502;13.426;2023-07-09T13:42:09;4.90;;;4.25;;
56927;SDS011;60850;52.502;13.426;2023-07-09T13:44:38;3.92;;;3.47;;
56927;SDS011;60850;52.502;13.426;2023-07-09T13:47:09;6.43;;;3.80;;
56927;SDS011;60850;52.502;13.426;2023-07-09T13:49:41;5.20;;;3.97;;
56927;SDS011;60850;52.502;13.426;2023-07-09T13:52:12;5.30;;;4.22;;
56927;SDS011;60850;52.502;13.426;2023-07-09T13:54:42;5.95;;;4.00;;
56927;SDS011;60850;52.502;13.426;2023-07-09T13:57:14;5.32;;;3.85;;
56927;SDS011;60850;52.502;13.426;2023-07-09T13:59:43;5.85;;;3.97;;
56927;SDS011;60850;52.502;13.426;2023-07-09T14:02:21;4.55;;;3.80;;
56927;SDS011;60850;52.502;13.426;2023-07-09T14:04:53;4.40;;;3.75;;
56927;SDS011;60850;52.502;13.426;2023-07-09T14:07:24;6.43;;;4.38;;
56927;SDS011;60850;52.502;13.426;2023-07-09T14:09:53;6.15;;;4.07;;
56927;SDS011;60850;52.502;13.426;2023-07-09T14:12:20;6.97;;;4.05;;
56927;SDS011;60850;52.502;13.426;2023-07-09T14:14:48;5.18;;;4.20;;
56927;SDS011;60850;52.502;13.426;2023-07-09T14:17:16;6.93;;;4.38;;
56927;SDS011;60850;52.502;13.426;2023-07-09T14:19:44;5.63;;;4.28;;
56927;SDS011;60850;52.502;13.426;2023-07-09T14:22:20;6.97;;;4.03;;
56927;SDS011;60850;52.502;13.426;2023-07-09T14:24:49;4.88;;;3.88;;
56927;SDS011;60850;52.502;13.426;2023-07-09T14:27:16;5.90;;;4.15;;
56927;SDS011;60850;52.502;13.426;2023-07-09T14:29:45;4.60;;;3.83;;
56927;SDS011;60850;52.502;13.426;2023-07-09T14:32:22;7.32;;;4.05;;
56927;SDS011;60850;52.502;13.426;2023-07-09T14:34:57;3.85;;;3.45;;
56927;SDS011;60850;52.502;13.426;2023-07-09T14:37:27;4.65;;;3.55;;
56927;SDS011;60850;52.502;13.426;2023-07-09T14:39:54;7.18;;;3.70;;
56927;SDS011;60850;52.502;13.426;2023-07-09T14:42:21;6.00;;;3.80;;
56927;SDS011;60850;52.502;13.426;2023-07-09T14:44:48;7.28;;;5.03;;
56927;SDS011;60850;52.502;13.426;2023-07-09T14:47:16;3.70;;;3.30;;
56927;SDS011;60850;52.502;13.426;2023-07-09T14:49:45;5.78;;;3.40;;